sensor_id;sensor_type;location;lat;lon;timestamp;P1;durP1;ratioP1;P2;durP2;ratioP2
17361;SDS011;8798;51.938;4.348;2023-05-10T00:00:10;18.93;;;9.90;;
17361;SDS011;8798;51.938;4.348;2023-05-10T00:02:41;18.73;;;9.70;;
17361;SDS011;8798;51.938;4.348;2023-05-10T00:05:08;14.87;;;8.73;;
17361;SDS011;8798;51.938;4.348;2023-05-10T00:07:36;16.50;;;8.53;;
17361;SDS011;8798;51.938;4.348;2023-05-10T00:10:04;19.03;;;9.27;;
17361;SDS011;8798;51.938;4.348;2023-05-10T00:12:32;19.17;;;9.37;;
17361;SDS011;8798;51.938;4.348;2023-05-10T00:15:00;19.17;;;8.57;;
17361;SDS011;8798;51.938;4.348;2023-05-10T00:17:29;18.13;;;9.77;;
17361;SDS011;8798;51.938;4.348;2023-05-10T00:19:58;18.70;;;10.57;;
17361;SDS011;8798;51.938;4.348;2023-05-10T00:22:26;17.70;;;9.90;;
17361;SDS011;8798;51.938;4.348;2023-05-10T00:24:54;19.77;;;10.20;;
17361;SDS011;8798;51.938;4.348;2023-05-10T00:27:22;25.57;;;11.67;;
17361;SDS011;8798;51.938;4.348;2023-05-10T00:29:50;22.77;;;11.27;;
17361;SDS011;8798;51.938;4.348;2023-05-10T00:32:17;24.80;;;11.43;;
17361;SDS011;8798;51.938;4.348;2023-05-10T00:34:45;21.37;;;11.23;;
17361;SDS011;8798;51.938;4.348;2023-05-10T00:37:14;23.63;;;10.67;;
17361;SDS011;8798;51.938;4.348;2023-05-10T00:39:42;21.13;;;10.63;;
17361;SDS011;8798;51.938;4.348;2023-05-10T00:42:10;21.73;;;11.30;;
17361;SDS011;8798;51.938;4.348;2023-05-10T00:44:38;29.30;;;11.33;;
17361;SDS011;8798;51.938;4.348;2023-05-10T00:47:05;26.97;;;10.43;;
17361;SDS011;8798;51.938;4.348;2023-05-10T00:49:34;23.27;;;11.33;;
17361;SDS011;8798;51.938;4.348;2023-05-10T00:52:02;23.17;;;10.80;;
17361;SDS011;8798;51.938;4.348;2023-05-10T00:54:32;21.60;;;10.27;;
17361;SDS011;8798;51.938;4.348;2023-05-10T00:57:00;21.87;;;10.13;;
17361;SDS011;8798;51.938;4.348;2023-05-10T00:59:28;18.73;;;9.90;;
17361;SDS011;8798;51.938;4.348;2023-05-10T01:01:56;17.83;;;9.50;;
17361;SDS011;8798;51.938;4.348;2023-05-10T01:04:25;23.60;;;10.23;;
17361;SDS011;8798;51.938;4.348;2023-05-10T01:06:53;21.90;;;8.93;;
17361;SDS011;8798;51.938;4.348;2023-05-10T01:09:21;20.57;;;9.20;;
17361;SDS011;8798;51.938;4.348;2023-05-10T01:11:52;19.10;;;9.53;;
17361;SDS011;8798;51.938;4.348;2023-05-10T01:14:21;17.53;;;8.97;;
17361;SDS011;8798;51.938;4.348;2023-05-10T01:16:49;20.80;;;8.97;;
17361;SDS011;8798;51.938;4.348;2023-05-10T01:19:18;20.73;;;8.37;;
17361;SDS011;8798;51.938;4.348;2023-05-10T01:21:49;23.03;;;9.57;;
17361;SDS011;8798;51.938;4.348;2023-05-10T01:24:32;20.43;;;9.47;;
17361;SDS011;8798;51.938;4.348;2023-05-10T01:30:13;19.93;;;8.73;;
17361;SDS011;8798;51.938;4.348;2023-05-10T01:32:58;19.63;;;9.27;;
17361;SDS011;8798;51.938;4.348;2023-05-10T01:35:32;21.40;;;8.77;;
17361;SDS011;8798;51.938;4.348;2023-05-10T01:38:07;18.17;;;8.33;;
17361;SDS011;8798;51.938;4.348;2023-05-10T01:40:47;17.07;;;7.60;;
17361;SDS011;8798;51.938;4.348;2023-05-10T01:43:22;23.13;;;8.87;;
17361;SDS011;8798;51.938;4.348;2023-05-10T01:45:56;21.47;;;9.37;;
17361;SDS011;8798;51.938;4.348;2023-05-10T01:48:37;21.90;;;9.77;;
17361;SDS011;8798;51.938;4.348;2023-05-10T01:51:07;20.90;;;9.87;;
17361;SDS011;8798;51.938;4.348;2023-05-10T01:53:36;24.23;;;10.30;;
17361;SDS011;8798;51.938;4.348;2023-05-10T01:56:06;21.13;;;10.43;;
17361;SDS011;8798;51.938;4.348;2023-05-10T01:58:35;20.70;;;9.70;;
17361;SDS011;8798;51.938;4.348;2023-05-10T02:01:07;28.37;;;10.30;;
17361;SDS011;8798;51.938;4.348;2023-05-10T02:03:38;23.67;;;10.10;;
17361;SDS011;8798;51.938;4.348;2023-05-10T02:06:07;20.27;;;9.57;;
17361;SDS011;8798;51.938;4.348;2023-05-10T02:08:38;23.90;;;9.77;;
17361;SDS011;8798;51.938;4.348;2023-05-10T02:11:07;21.80;;;10.17;;
17361;SDS011;8798;51.938;4.348;2023-05-10T02:13:38;25.33;;;10.17;;
17361;SDS011;8798;51.938;4.348;2023-05-10T02:16:06;21.70;;;10.50;;
17361;SDS011;8798;51.938;4.348;2023-05-10T02:18:34;23.97;;;11.03;;
17361;SDS011;8798;51.938;4.348;2023-05-10T02:21:04;24.40;;;10.10;;
17361;SDS011;8798;51.938;4.348;2023-05-10T02:23:32;22.73;;;10.37;;
17361;SDS011;8798;51.938;4.348;2023-05-10T02:26:02;19.20;;;9.57;;
17361;SDS011;8798;51.938;4.348;2023-05-10T02:28:32;20.23;;;10.20;;
17361;SDS011;8798;51.938;4.348;2023-05-10T02:31:00;21.00;;;10.47;;
17361;SDS011;8798;51.938;4.348;2023-05-10T02:33:28;26.97;;;11.07;;
17361;SDS011;8798;51.938;4.348;2023-05-10T02:35:59;22.83;;;11.00;;
17361;SDS011;8798;51.938;4.348;2023-05-10T02:38:30;28.80;;;11.00;;
17361;SDS011;8798;51.938;4.348;2023-05-10T02:41:00;19.97;;;10.03;;
17361;SDS011;8798;51.938;4.348;2023-05-10T02:43:29;21.07;;;10.63;;
17361;SDS011;8798;51.938;4.348;2023-05-10T02:45:59;22.03;;;10.47;;
17361;SDS011;8798;51.938;4.348;2023-05-10T02:48:27;19.80;;;10.40;;
17361;SDS011;8798;51.938;4.348;2023-05-10T02:50:56;20.67;;;10.67;;
17361;SDS011;8798;51.938;4.348;2023-05-10T02:53:33;24.90;;;10.43;;
17361;SDS011;8798;51.938;4.348;2023-05-10T02:56:09;19.07;;;10.20;;
17361;SDS011;8798;51.938;4.348;2023-05-10T02:58:41;20.53;;;9.73;;
17361;SDS011;8798;51.938;4.348;2023-05-10T03:01:09;22.20;;;9.97;;
17361;SDS011;8798;51.938;4.348;2023-05-10T03:03:37;18.03;;;9.07;;
17361;SDS011;8798;51.938;4.348;2023-05-10T03:06:04;19.47;;;10.33;;
17361;SDS011;8798;51.938;4.348;2023-05-10T03:08:34;17.57;;;9.77;;
17361;SDS011;8798;51.938;4.348;2023-05-10T03:11:09;17.60;;;10.23;;
17361;SDS011;8798;51.938;4.348;2023-05-10T03:13:48;15.77;;;10.00;;
17361;SDS011;8798;51.938;4.348;2023-05-10T03:16:29;19.77;;;9.47;;
17361;SDS011;8798;51.938;4.348;2023-05-10T03:19:05;17.30;;;8.83;;
17361;SDS011;8798;51.938;4.348;2023-05-10T03:21:39;17.57;;;8.03;;
17361;SDS011;8798;51.938;4.348;2023-05-10T03:24:13;16.60;;;9.77;;
17361;SDS011;8798;51.938;4.348;2023-05-10T03:26:43;18.90;;;10.77;;
17361;SDS011;8798;51.938;4.348;2023-05-10T03:29:12;20.60;;;10.57;;
17361;SDS011;8798;51.938;4.348;2023-05-10T03:31:41;18.73;;;9.90;;
17361;SDS011;8798;51.938;4.348;2023-05-10T03:34:09;20.87;;;11.10;;
17361;SDS011;8798;51.938;4.348;2023-05-10T03:36:37;20.87;;;11.13;;
17361;SDS011;8798;51.938;4.348;2023-05-10T03:39:05;19.93;;;10.23;;
17361;SDS011;8798;51.938;4.348;2023-05-10T03:41:34;24.37;;;11.67;;
17361;SDS011;8798;51.938;4.348;2023-05-10T03:44:02;18.83;;;9.13;;
17361;SDS011;8798;51.938;4.348;2023-05-10T03:46:30;18.10;;;10.07;;
17361;SDS011;8798;51.938;4.348;2023-05-10T03:48:57;22.90;;;11.53;;
17361;SDS011;8798;51.938;4.348;2023-05-10T03:51:25;17.40;;;10.20;;
17361;SDS011;8798;51.938;4.348;2023-05-10T03:53:54;22.77;;;12.30;;
17361;SDS011;8798;51.938;4.348;2023-05-10T03:56:22;27.83;;;12.70;;
17361;SDS011;8798;51.938;4.348;2023-05-10T03:58:51;24.23;;;11.70;;
17361;SDS011;8798;51.938;4.348;2023-05-10T04:01:19;26.17;;;13.83;;
17361;SDS011;8798;51.938;4.348;2023-05-10T04:03:46;24.57;;;12.93;;
17361;SDS011;8798;51.938;4.348;2023-05-10T04:06:14;27.43;;;12.57;;
17361;SDS011;8798;51.938;4.348;2023-05-10T04:08:42;27.57;;;12.73;;
17361;SDS011;8798;51.938;4.348;2023-05-10T04:11:11;19.20;;;9.73;;
17361;SDS011;8798;51.938;4.348;2023-05-10T04:13:40;24.20;;;10.97;;
17361;SDS011;8798;51.938;4.348;2023-05-10T04:16:10;18.50;;;9.03;;
17361;SDS011;8798;51.938;4.348;2023-05-10T04:18:38;16.87;;;9.13;;
17361;SDS011;8798;51.938;4.348;2023-05-10T04:21:10;18.80;;;9.03;;
17361;SDS011;8798;51.938;4.348;2023-05-10T04:23:39;14.60;;;7.33;;
17361;SDS011;8798;51.938;4.348;2023-05-10T04:26:07;20.37;;;7.90;;
17361;SDS011;8798;51.938;4.348;2023-05-10T04:28:35;14.00;;;7.50;;
17361;SDS011;8798;51.938;4.348;2023-05-10T04:31:02;14.67;;;6.97;;
17361;SDS011;8798;51.938;4.348;2023-05-10T04:33:32;13.00;;;7.07;;
17361;SDS011;8798;51.938;4.348;2023-05-10T04:36:00;12.40;;;6.77;;
17361;SDS011;8798;51.938;4.348;2023-05-10T04:38:29;12.57;;;6.60;;
17361;SDS011;8798;51.938;4.348;2023-05-10T04:41:03;7.43;;;5.37;;
17361;SDS011;8798;51.938;4.348;2023-05-10T04:43:32;11.57;;;5.97;;
17361;SDS011;8798;51.938;4.348;2023-05-10T04:46:00;8.67;;;5.20;;
17361;SDS011;8798;51.938;4.348;2023-05-10T04:48:28;6.53;;;4.40;;
17361;SDS011;8798;51.938;4.348;2023-05-10T04:50:57;6.37;;;3.77;;
17361;SDS011;8798;51.938;4.348;2023-05-10T04:53:24;7.40;;;4.03;;
17361;SDS011;8798;51.938;4.348;2023-05-10T04:55:52;6.57;;;3.50;;
17361;SDS011;8798;51.938;4.348;2023-05-10T04:58:20;5.33;;;3.60;;
17361;SDS011;8798;51.938;4.348;2023-05-10T05:00:48;5.37;;;3.73;;
17361;SDS011;8798;51.938;4.348;2023-05-10T05:03:16;5.33;;;3.00;;
17361;SDS011;8798;51.938;4.348;2023-05-10T05:05:44;4.37;;;2.83;;
17361;SDS011;8798;51.938;4.348;2023-05-10T05:08:13;5.57;;;3.70;;
17361;SDS011;8798;51.938;4.348;2023-05-10T05:10:41;6.07;;;3.50;;
17361;SDS011;8798;51.938;4.348;2023-05-10T05:13:09;6.60;;;3.97;;
17361;SDS011;8798;51.938;4.348;2023-05-10T05:15:37;8.17;;;3.57;;
17361;SDS011;8798;51.938;4.348;2023-05-10T05:18:05;8.90;;;3.70;;
17361;SDS011;8798;51.938;4.348;2023-05-10T05:20:33;6.97;;;4.23;;
17361;SDS011;8798;51.938;4.348;2023-05-10T05:23:01;10.40;;;4.83;;
17361;SDS011;8798;51.938;4.348;2023-05-10T05:25:30;11.37;;;5.23;;
17361;SDS011;8798;51.938;4.348;2023-05-10T05:27:58;13.13;;;5.43;;
17361;SDS011;8798;51.938;4.348;2023-05-10T05:30:26;14.17;;;6.20;;
17361;SDS011;8798;51.938;4.348;2023-05-10T05:32:54;12.43;;;6.37;;
17361;SDS011;8798;51.938;4.348;2023-05-10T05:35:21;10.27;;;6.00;;
17361;SDS011;8798;51.938;4.348;2023-05-10T05:37:49;14.50;;;6.63;;
17361;SDS011;8798;51.938;4.348;2023-05-10T05:40:17;9.60;;;5.30;;
17361;SDS011;8798;51.938;4.348;2023-05-10T05:42:46;7.87;;;5.07;;
17361;SDS011;8798;51.938;4.348;2023-05-10T05:45:14;10.27;;;5.10;;
17361;SDS011;8798;51.938;4.348;2023-05-10T05:47:42;10.97;;;4.83;;
17361;SDS011;8798;51.938;4.348;2023-05-10T05:50:10;7.37;;;3.40;;
17361;SDS011;8798;51.938;4.348;2023-05-10T05:52:38;9.40;;;4.50;;
17361;SDS011;8798;51.938;4.348;2023-05-10T05:55:06;5.37;;;3.20;;
17361;SDS011;8798;51.938;4.348;2023-05-10T05:57:34;6.33;;;3.10;;
17361;SDS011;8798;51.938;4.348;2023-05-10T06:00:04;5.10;;;2.83;;
17361;SDS011;8798;51.938;4.348;2023-05-10T06:02:33;6.20;;;3.00;;
17361;SDS011;8798;51.938;4.348;2023-05-10T06:05:01;5.17;;;2.93;;
17361;SDS011;8798;51.938;4.348;2023-05-10T06:07:28;4.63;;;2.80;;
17361;SDS011;8798;51.938;4.348;2023-05-10T06:09:56;6.47;;;3.30;;
17361;SDS011;8798;51.938;4.348;2023-05-10T06:12:24;5.10;;;3.17;;
17361;SDS011;8798;51.938;4.348;2023-05-10T06:14:52;6.17;;;3.50;;
17361;SDS011;8798;51.938;4.348;2023-05-10T06:17:21;7.07;;;3.43;;
17361;SDS011;8798;51.938;4.348;2023-05-10T06:19:50;6.87;;;3.27;;
17361;SDS011;8798;51.938;4.348;2023-05-10T06:22:18;6.70;;;3.53;;
17361;SDS011;8798;51.938;4.348;2023-05-10T06:24:46;8.93;;;3.60;;
17361;SDS011;8798;51.938;4.348;2023-05-10T06:27:13;6.47;;;3.50;;
17361;SDS011;8798;51.938;4.348;2023-05-10T06:29:41;5.87;;;3.30;;
17361;SDS011;8798;51.938;4.348;2023-05-10T06:32:09;5.67;;;3.20;;
17361;SDS011;8798;51.938;4.348;2023-05-10T06:34:38;6.13;;;3.00;;
17361;SDS011;8798;51.938;4.348;2023-05-10T06:37:06;5.57;;;3.13;;
17361;SDS011;8798;51.938;4.348;2023-05-10T06:39:34;5.87;;;3.00;;
17361;SDS011;8798;51.938;4.348;2023-05-10T06:42:02;4.40;;;2.90;;
17361;SDS011;8798;51.938;4.348;2023-05-10T06:44:30;5.50;;;3.23;;
17361;SDS011;8798;51.938;4.348;2023-05-10T06:46:58;5.97;;;3.53;;
17361;SDS011;8798;51.938;4.348;2023-05-10T06:49:26;3.90;;;2.83;;
17361;SDS011;8798;51.938;4.348;2023-05-10T06:51:56;4.77;;;2.13;;
17361;SDS011;8798;51.938;4.348;2023-05-10T06:54:24;3.93;;;2.10;;
17361;SDS011;8798;51.938;4.348;2023-05-10T06:56:52;2.90;;;2.17;;
17361;SDS011;8798;51.938;4.348;2023-05-10T06:59:20;4.53;;;2.00;;
17361;SDS011;8798;51.938;4.348;2023-05-10T07:01:48;3.00;;;1.83;;
17361;SDS011;8798;51.938;4.348;2023-05-10T07:04:15;2.87;;;1.77;;
17361;SDS011;8798;51.938;4.348;2023-05-10T07:06:43;2.50;;;1.43;;
17361;SDS011;8798;51.938;4.348;2023-05-10T07:09:13;3.53;;;1.90;;
17361;SDS011;8798;51.938;4.348;2023-05-10T07:11:41;5.73;;;2.13;;
17361;SDS011;8798;51.938;4.348;2023-05-10T07:14:09;3.73;;;2.03;;
17361;SDS011;8798;51.938;4.348;2023-05-10T07:16:37;3.23;;;2.00;;
17361;SDS011;8798;51.938;4.348;2023-05-10T07:19:05;6.10;;;2.10;;
17361;SDS011;8798;51.938;4.348;2023-05-10T07:21:33;2.90;;;1.83;;
17361;SDS011;8798;51.938;4.348;2023-05-10T07:24:01;5.00;;;2.17;;
17361;SDS011;8798;51.938;4.348;2023-05-10T07:26:30;2.80;;;2.23;;
17361;SDS011;8798;51.938;4.348;2023-05-10T07:28:58;2.87;;;1.80;;
17361;SDS011;8798;51.938;4.348;2023-05-10T07:31:26;4.53;;;1.97;;
17361;SDS011;8798;51.938;4.348;2023-05-10T07:33:54;3.33;;;2.17;;
17361;SDS011;8798;51.938;4.348;2023-05-10T07:36:22;4.30;;;2.43;;
17361;SDS011;8798;51.938;4.348;2023-05-10T07:38:49;3.43;;;2.00;;
17361;SDS011;8798;51.938;4.348;2023-05-10T07:41:17;5.43;;;2.30;;
17361;SDS011;8798;51.938;4.348;2023-05-10T07:43:46;6.63;;;2.67;;
17361;SDS011;8798;51.938;4.348;2023-05-10T07:46:14;4.00;;;2.43;;
17361;SDS011;8798;51.938;4.348;2023-05-10T07:48:42;4.37;;;2.60;;
17361;SDS011;8798;51.938;4.348;2023-05-10T07:51:10;4.20;;;3.07;;
17361;SDS011;8798;51.938;4.348;2023-05-10T07:53:38;5.73;;;3.00;;
17361;SDS011;8798;51.938;4.348;2023-05-10T07:56:20;5.50;;;2.67;;
17361;SDS011;8798;51.938;4.348;2023-05-10T07:58:50;4.33;;;2.60;;
17361;SDS011;8798;51.938;4.348;2023-05-10T08:01:18;4.03;;;2.40;;
17361;SDS011;8798;51.938;4.348;2023-05-10T08:03:46;3.10;;;2.23;;
17361;SDS011;8798;51.938;4.348;2023-05-10T08:06:14;3.33;;;2.27;;
17361;SDS011;8798;51.938;4.348;2023-05-10T08:08:42;3.20;;;2.10;;
17361;SDS011;8798;51.938;4.348;2023-05-10T08:11:11;5.87;;;3.17;;
17361;SDS011;8798;51.938;4.348;2023-05-10T08:13:39;3.47;;;2.37;;
17361;SDS011;8798;51.938;4.348;2023-05-10T08:16:08;3.33;;;2.60;;
17361;SDS011;8798;51.938;4.348;2023-05-10T08:18:36;4.73;;;2.40;;
17361;SDS011;8798;51.938;4.348;2023-05-10T08:21:04;3.53;;;2.23;;
17361;SDS011;8798;51.938;4.348;2023-05-10T08:23:32;4.03;;;2.43;;
17361;SDS011;8798;51.938;4.348;2023-05-10T08:26:00;4.87;;;2.37;;
17361;SDS011;8798;51.938;4.348;2023-05-10T08:28:28;4.60;;;2.50;;
17361;SDS011;8798;51.938;4.348;2023-05-10T08:30:56;4.40;;;2.00;;
17361;SDS011;8798;51.938;4.348;2023-05-10T08:33:25;3.90;;;2.17;;
17361;SDS011;8798;51.938;4.348;2023-05-10T08:35:53;3.97;;;2.57;;
17361;SDS011;8798;51.938;4.348;2023-05-10T08:38:21;4.80;;;2.73;;
17361;SDS011;8798;51.938;4.348;2023-05-10T08:40:49;3.20;;;2.73;;
17361;SDS011;8798;51.938;4.348;2023-05-10T08:43:22;4.63;;;2.77;;
17361;SDS011;8798;51.938;4.348;2023-05-10T08:45:54;3.93;;;2.90;;
17361;SDS011;8798;51.938;4.348;2023-05-10T08:48:23;5.47;;;2.70;;
17361;SDS011;8798;51.938;4.348;2023-05-10T08:50:53;4.20;;;2.20;;
17361;SDS011;8798;51.938;4.348;2023-05-10T08:53:22;4.33;;;2.37;;
17361;SDS011;8798;51.938;4.348;2023-05-10T08:55:52;5.53;;;3.13;;
17361;SDS011;8798;51.938;4.348;2023-05-10T08:58:21;4.00;;;2.93;;
17361;SDS011;8798;51.938;4.348;2023-05-10T09:00:49;5.57;;;3.30;;
17361;SDS011;8798;51.938;4.348;2023-05-10T09:03:18;6.77;;;3.40;;
17361;SDS011;8798;51.938;4.348;2023-05-10T09:05:46;5.37;;;3.03;;
17361;SDS011;8798;51.938;4.348;2023-05-10T09:08:16;6.23;;;3.33;;
17361;SDS011;8798;51.938;4.348;2023-05-10T09:10:44;5.43;;;3.17;;
17361;SDS011;8798;51.938;4.348;2023-05-10T09:13:14;4.90;;;3.30;;
17361;SDS011;8798;51.938;4.348;2023-05-10T09:15:43;4.73;;;2.63;;
17361;SDS011;8798;51.938;4.348;2023-05-10T09:18:11;4.93;;;2.90;;
17361;SDS011;8798;51.938;4.348;2023-05-10T09:20:39;5.60;;;3.13;;
17361;SDS011;8798;51.938;4.348;2023-05-10T09:23:07;5.53;;;3.30;;
17361;SDS011;8798;51.938;4.348;2023-05-10T09:25:37;4.67;;;2.63;;
17361;SDS011;8798;51.938;4.348;2023-05-10T09:28:06;4.33;;;2.73;;
17361;SDS011;8798;51.938;4.348;2023-05-10T09:30:34;4.50;;;2.67;;
17361;SDS011;8798;51.938;4.348;2023-05-10T09:33:03;3.67;;;2.50;;
17361;SDS011;8798;51.938;4.348;2023-05-10T09:35:32;3.90;;;2.23;;
17361;SDS011;8798;51.938;4.348;2023-05-10T09:38:01;5.80;;;2.73;;
17361;SDS011;8798;51.938;4.348;2023-05-10T09:40:30;4.27;;;2.40;;
17361;SDS011;8798;51.938;4.348;2023-05-10T09:43:00;4.87;;;2.33;;
17361;SDS011;8798;51.938;4.348;2023-05-10T09:45:30;4.17;;;2.63;;
17361;SDS011;8798;51.938;4.348;2023-05-10T09:48:01;4.37;;;2.37;;
17361;SDS011;8798;51.938;4.348;2023-05-10T09:50:30;5.10;;;2.60;;
17361;SDS011;8798;51.938;4.348;2023-05-10T09:52:59;5.07;;;2.57;;
17361;SDS011;8798;51.938;4.348;2023-05-10T09:55:37;3.53;;;2.43;;
17361;SDS011;8798;51.938;4.348;2023-05-10T09:58:07;6.37;;;2.80;;
17361;SDS011;8798;51.938;4.348;2023-05-10T10:00:38;4.20;;;2.80;;
17361;SDS011;8798;51.938;4.348;2023-05-10T10:03:07;5.47;;;3.10;;
17361;SDS011;8798;51.938;4.348;2023-05-10T10:05:40;4.87;;;3.03;;
17361;SDS011;8798;51.938;4.348;2023-05-10T10:08:08;4.60;;;2.70;;
17361;SDS011;8798;51.938;4.348;2023-05-10T10:10:36;4.27;;;2.50;;
17361;SDS011;8798;51.938;4.348;2023-05-10T10:13:08;4.20;;;2.60;;
17361;SDS011;8798;51.938;4.348;2023-05-10T10:15:36;3.93;;;2.43;;
17361;SDS011;8798;51.938;4.348;2023-05-10T10:18:06;4.60;;;2.73;;
17361;SDS011;8798;51.938;4.348;2023-05-10T10:20:39;5.20;;;3.30;;
17361;SDS011;8798;51.938;4.348;2023-05-10T10:23:08;3.90;;;2.73;;
17361;SDS011;8798;51.938;4.348;2023-05-10T10:25:36;3.37;;;2.60;;
17361;SDS011;8798;51.938;4.348;2023-05-10T10:28:10;3.03;;;2.30;;
17361;SDS011;8798;51.938;4.348;2023-05-10T10:30:50;9.07;;;2.87;;
17361;SDS011;8798;51.938;4.348;2023-05-10T10:33:28;4.57;;;2.23;;
17361;SDS011;8798;51.938;4.348;2023-05-10T10:36:13;3.07;;;2.50;;
17361;SDS011;8798;51.938;4.348;2023-05-10T10:38:55;4.30;;;2.40;;
17361;SDS011;8798;51.938;4.348;2023-05-10T10:41:28;4.10;;;2.37;;
17361;SDS011;8798;51.938;4.348;2023-05-10T10:47:02;6.40;;;2.47;;
17361;SDS011;8798;51.938;4.348;2023-05-10T10:49:38;4.10;;;2.50;;
17361;SDS011;8798;51.938;4.348;2023-05-10T10:52:20;4.83;;;2.50;;
17361;SDS011;8798;51.938;4.348;2023-05-10T10:54:51;3.93;;;2.30;;
17361;SDS011;8798;51.938;4.348;2023-05-10T10:57:20;3.70;;;2.30;;
17361;SDS011;8798;51.938;4.348;2023-05-10T10:59:59;3.07;;;2.10;;
17361;SDS011;8798;51.938;4.348;2023-05-10T11:02:49;3.10;;;2.10;;
17361;SDS011;8798;51.938;4.348;2023-05-10T11:08:18;3.17;;;2.20;;
17361;SDS011;8798;51.938;4.348;2023-05-10T11:11:04;4.90;;;2.40;;
17361;SDS011;8798;51.938;4.348;2023-05-10T11:13:40;3.03;;;2.10;;
17361;SDS011;8798;51.938;4.348;2023-05-10T11:16:14;3.23;;;2.33;;
17361;SDS011;8798;51.938;4.348;2023-05-10T11:18:54;3.70;;;2.20;;
17361;SDS011;8798;51.938;4.348;2023-05-10T11:21:25;6.20;;;2.33;;
17361;SDS011;8798;51.938;4.348;2023-05-10T11:23:53;4.83;;;2.37;;
17361;SDS011;8798;51.938;4.348;2023-05-10T11:26:24;3.23;;;2.23;;
17361;SDS011;8798;51.938;4.348;2023-05-10T11:28:53;4.17;;;2.47;;
17361;SDS011;8798;51.938;4.348;2023-05-10T11:31:23;4.33;;;2.37;;
17361;SDS011;8798;51.938;4.348;2023-05-10T11:33:53;4.17;;;2.27;;
17361;SDS011;8798;51.938;4.348;2023-05-10T11:36:24;3.60;;;2.07;;
17361;SDS011;8798;51.938;4.348;2023-05-10T11:38:54;6.43;;;1.97;;
17361;SDS011;8798;51.938;4.348;2023-05-10T11:41:23;4.90;;;1.67;;
17361;SDS011;8798;51.938;4.348;2023-05-10T11:43:52;5.90;;;2.00;;
17361;SDS011;8798;51.938;4.348;2023-05-10T11:46:21;2.97;;;1.63;;
17361;SDS011;8798;51.938;4.348;2023-05-10T11:48:53;2.67;;;1.90;;
17361;SDS011;8798;51.938;4.348;2023-05-10T11:51:23;3.73;;;1.83;;
17361;SDS011;8798;51.938;4.348;2023-05-10T11:53:52;4.67;;;1.83;;
17361;SDS011;8798;51.938;4.348;2023-05-10T11:56:21;4.03;;;2.27;;
17361;SDS011;8798;51.938;4.348;2023-05-10T11:58:52;4.73;;;2.47;;
17361;SDS011;8798;51.938;4.348;2023-05-10T12:01:21;6.60;;;2.50;;
17361;SDS011;8798;51.938;4.348;2023-05-10T12:03:52;6.23;;;2.80;;
17361;SDS011;8798;51.938;4.348;2023-05-10T12:06:22;4.80;;;2.83;;
17361;SDS011;8798;51.938;4.348;2023-05-10T12:08:53;5.67;;;2.90;;
17361;SDS011;8798;51.938;4.348;2023-05-10T12:11:24;5.37;;;2.83;;
17361;SDS011;8798;51.938;4.348;2023-05-10T12:13:53;6.70;;;3.17;;
17361;SDS011;8798;51.938;4.348;2023-05-10T12:16:22;7.57;;;3.17;;
17361;SDS011;8798;51.938;4.348;2023-05-10T12:18:54;9.00;;;3.17;;
17361;SDS011;8798;51.938;4.348;2023-05-10T12:21:23;5.00;;;3.00;;
17361;SDS011;8798;51.938;4.348;2023-05-10T12:23:53;6.33;;;2.90;;
17361;SDS011;8798;51.938;4.348;2023-05-10T12:26:22;5.20;;;2.23;;
17361;SDS011;8798;51.938;4.348;2023-05-10T12:28:51;4.73;;;2.27;;
17361;SDS011;8798;51.938;4.348;2023-05-10T12:31:19;5.17;;;2.57;;
17361;SDS011;8798;51.938;4.348;2023-05-10T12:33:48;4.77;;;2.13;;
17361;SDS011;8798;51.938;4.348;2023-05-10T12:36:16;4.57;;;2.50;;
17361;SDS011;8798;51.938;4.348;2023-05-10T12:38:50;4.60;;;2.60;;
17361;SDS011;8798;51.938;4.348;2023-05-10T12:41:18;6.10;;;3.00;;
17361;SDS011;8798;51.938;4.348;2023-05-10T12:43:47;6.20;;;3.10;;
17361;SDS011;8798;51.938;4.348;2023-05-10T12:46:16;5.60;;;3.30;;
17361;SDS011;8798;51.938;4.348;2023-05-10T12:48:44;6.43;;;3.40;;
17361;SDS011;8798;51.938;4.348;2023-05-10T12:51:14;6.27;;;2.80;;
17361;SDS011;8798;51.938;4.348;2023-05-10T12:53:45;7.23;;;3.23;;
17361;SDS011;8798;51.938;4.348;2023-05-10T12:56:15;6.73;;;3.30;;
17361;SDS011;8798;51.938;4.348;2023-05-10T12:58:42;6.70;;;3.30;;
17361;SDS011;8798;51.938;4.348;2023-05-10T13:01:14;5.10;;;3.20;;
17361;SDS011;8798;51.938;4.348;2023-05-10T13:03:42;5.67;;;3.50;;
17361;SDS011;8798;51.938;4.348;2023-05-10T13:06:10;5.07;;;3.07;;
17361;SDS011;8798;51.938;4.348;2023-05-10T13:08:41;7.47;;;3.17;;
17361;SDS011;8798;51.938;4.348;2023-05-10T13:11:08;7.77;;;3.23;;
17361;SDS011;8798;51.938;4.348;2023-05-10T13:13:36;4.47;;;2.90;;
17361;SDS011;8798;51.938;4.348;2023-05-10T13:16:04;5.43;;;2.70;;
17361;SDS011;8798;51.938;4.348;2023-05-10T13:18:33;9.60;;;3.37;;
17361;SDS011;8798;51.938;4.348;2023-05-10T13:21:01;6.00;;;3.10;;
17361;SDS011;8798;51.938;4.348;2023-05-10T13:23:30;4.57;;;2.90;;
17361;SDS011;8798;51.938;4.348;2023-05-10T13:25:59;5.03;;;2.30;;
17361;SDS011;8798;51.938;4.348;2023-05-10T13:28:27;3.73;;;2.40;;
17361;SDS011;8798;51.938;4.348;2023-05-10T13:30:55;6.07;;;2.20;;
17361;SDS011;8798;51.938;4.348;2023-05-10T13:33:23;3.20;;;2.13;;
17361;SDS011;8798;51.938;4.348;2023-05-10T13:35:50;4.67;;;2.27;;
17361;SDS011;8798;51.938;4.348;2023-05-10T13:38:21;4.47;;;2.40;;
17361;SDS011;8798;51.938;4.348;2023-05-10T13:40:48;6.57;;;1.97;;
17361;SDS011;8798;51.938;4.348;2023-05-10T13:43:20;3.30;;;2.03;;
17361;SDS011;8798;51.938;4.348;2023-05-10T13:45:48;4.90;;;2.20;;
17361;SDS011;8798;51.938;4.348;2023-05-10T13:48:16;4.33;;;2.40;;
17361;SDS011;8798;51.938;4.348;2023-05-10T13:50:43;4.57;;;2.50;;
17361;SDS011;8798;51.938;4.348;2023-05-10T13:53:12;4.47;;;2.60;;
17361;SDS011;8798;51.938;4.348;2023-05-10T13:55:40;8.57;;;3.63;;
17361;SDS011;8798;51.938;4.348;2023-05-10T13:58:08;5.40;;;3.57;;
17361;SDS011;8798;51.938;4.348;2023-05-10T14:00:38;6.33;;;3.80;;
17361;SDS011;8798;51.938;4.348;2023-05-10T14:03:05;7.03;;;3.73;;
17361;SDS011;8798;51.938;4.348;2023-05-10T14:05:35;6.63;;;3.90;;
17361;SDS011;8798;51.938;4.348;2023-05-10T14:08:03;6.30;;;4.40;;
17361;SDS011;8798;51.938;4.348;2023-05-10T14:10:31;5.30;;;3.33;;
17361;SDS011;8798;51.938;4.348;2023-05-10T14:12:58;8.53;;;3.50;;
17361;SDS011;8798;51.938;4.348;2023-05-10T14:15:26;6.83;;;3.60;;
17361;SDS011;8798;51.938;4.348;2023-05-10T14:17:56;7.03;;;3.37;;
17361;SDS011;8798;51.938;4.348;2023-05-10T14:20:24;7.03;;;3.37;;
17361;SDS011;8798;51.938;4.348;2023-05-10T14:22:51;6.57;;;3.03;;
17361;SDS011;8798;51.938;4.348;2023-05-10T14:25:19;6.90;;;2.90;;
17361;SDS011;8798;51.938;4.348;2023-05-10T14:27:47;4.43;;;2.70;;
17361;SDS011;8798;51.938;4.348;2023-05-10T14:30:15;5.20;;;2.70;;
17361;SDS011;8798;51.938;4.348;2023-05-10T14:32:42;4.70;;;2.70;;
17361;SDS011;8798;51.938;4.348;2023-05-10T14:35:13;5.20;;;2.87;;
17361;SDS011;8798;51.938;4.348;2023-05-10T14:37:45;4.70;;;3.00;;
17361;SDS011;8798;51.938;4.348;2023-05-10T14:40:13;6.20;;;2.80;;
17361;SDS011;8798;51.938;4.348;2023-05-10T14:42:41;4.03;;;2.63;;
17361;SDS011;8798;51.938;4.348;2023-05-10T14:45:10;5.43;;;2.73;;
17361;SDS011;8798;51.938;4.348;2023-05-10T14:47:38;5.67;;;2.67;;
17361;SDS011;8798;51.938;4.348;2023-05-10T14:50:06;5.00;;;2.50;;
17361;SDS011;8798;51.938;4.348;2023-05-10T14:52:36;5.90;;;2.90;;
17361;SDS011;8798;51.938;4.348;2023-05-10T14:55:04;5.43;;;2.73;;
17361;SDS011;8798;51.938;4.348;2023-05-10T14:57:34;4.47;;;2.20;;
17361;SDS011;8798;51.938;4.348;2023-05-10T15:00:02;4.23;;;2.07;;
17361;SDS011;8798;51.938;4.348;2023-05-10T15:02:31;3.90;;;2.33;;
17361;SDS011;8798;51.938;4.348;2023-05-10T15:05:01;5.00;;;2.00;;
17361;SDS011;8798;51.938;4.348;2023-05-10T15:07:30;2.20;;;1.70;;
17361;SDS011;8798;51.938;4.348;2023-05-10T15:09:59;3.20;;;2.07;;
17361;SDS011;8798;51.938;4.348;2023-05-10T15:12:30;3.80;;;2.10;;
17361;SDS011;8798;51.938;4.348;2023-05-10T15:14:58;3.17;;;2.00;;
17361;SDS011;8798;51.938;4.348;2023-05-10T15:17:25;2.43;;;1.90;;